createdAt,value
2023-02-06T00:00:33.679Z,391.28
2023-02-06T00:01:33.773Z,392.88
2023-02-06T00:02:33.889Z,393.34
2023-02-06T00:03:33.933Z,392.88
2023-02-06T00:04:34.017Z,392.19
2023-02-06T00:05:34.535Z,394.73
2023-02-06T00:06:34.233Z,392.19
2023-02-06T00:07:34.273Z,391.74
2023-02-06T00:08:34.392Z,391.74
2023-02-06T00:09:34.447Z,393.34
2023-02-06T00:10:34.516Z,394.50
2023-02-06T00:11:34.637Z,393.34
2023-02-06T00:12:34.692Z,390.60
2023-02-06T00:13:34.779Z,391.51
2023-02-06T00:14:41.318Z,392.88
2023-02-06T00:15:35.464Z,390.60
2023-02-06T00:16:35.014Z,388.56
2023-02-06T00:17:35.098Z,391.96
2023-02-06T00:18:35.174Z,392.88
2023-02-06T00:19:35.264Z,393.80
2023-02-06T00:20:35.328Z,393.11
2023-02-06T00:21:35.418Z,395.19
2023-02-06T00:22:35.513Z,392.88
2023-02-06T00:23:35.588Z,393.11
2023-02-06T00:24:35.647Z,392.88
2023-02-06T00:25:36.125Z,389.92
2023-02-06T00:26:35.802Z,389.24
2023-02-06T00:27:35.896Z,392.19
2023-02-06T00:28:36.004Z,391.28
2023-02-06T00:29:36.062Z,394.03
2023-02-06T00:30:36.181Z,390.60
2023-02-06T00:31:36.238Z,392.65
2023-02-06T00:32:36.340Z,392.19
2023-02-06T00:33:36.413Z,392.19
2023-02-06T00:34:36.514Z,393.11
2023-02-06T00:35:36.863Z,389.92
2023-02-06T00:36:36.623Z,391.74
2023-02-06T00:37:36.682Z,392.65
2023-02-06T00:38:36.759Z,391.51
2023-02-06T00:39:36.847Z,392.19
2023-02-06T00:40:36.955Z,392.42
2023-02-06T00:41:36.998Z,391.96
2023-02-06T00:42:37.091Z,390.14
2023-02-06T00:43:37.154Z,392.65
2023-02-06T00:44:37.244Z,390.60
2023-02-06T00:45:43.870Z,392.19
2023-02-06T00:46:37.441Z,392.42
2023-02-06T00:47:37.486Z,392.65
2023-02-06T00:48:37.587Z,388.56
2023-02-06T00:49:37.658Z,392.42
2023-02-06T00:50:37.744Z,390.37
2023-02-06T00:51:37.819Z,392.42
2023-02-06T00:52:37.881Z,392.42
2023-02-06T00:53:37.977Z,392.42
2023-02-06T00:54:38.061Z,392.42
2023-02-06T00:55:38.153Z,393.80
2023-02-06T00:56:38.280Z,392.42
2023-02-06T00:57:38.358Z,391.74
2023-02-06T00:58:38.434Z,392.42
2023-02-06T00:59:38.524Z,393.80
2023-02-06T01:00:38.589Z,392.42
2023-02-06T01:01:38.746Z,393.80
2023-02-06T01:02:38.799Z,393.34
2023-02-06T01:03:38.821Z,393.57
2023-02-06T01:04:38.878Z,391.05
2023-02-06T01:05:39.129Z,389.69
2023-02-06T01:06:39.060Z,388.56
2023-02-06T01:07:39.182Z,391.51
2023-02-06T01:08:39.254Z,393.11
2023-02-06T01:09:39.312Z,393.34
2023-02-06T01:10:39.392Z,391.05
2023-02-06T01:11:39.487Z,392.19
2023-02-06T01:12:39.557Z,388.34
2023-02-06T01:13:39.641Z,391.05
2023-02-06T01:14:39.704Z,392.19
2023-02-06T01:15:39.794Z,389.01
2023-02-06T01:16:45.861Z,389.24
2023-02-06T01:17:39.983Z,388.79
2023-02-06T01:18:40.067Z,389.24
2023-02-06T01:19:40.168Z,392.42
2023-02-06T01:20:40.206Z,389.01
2023-02-06T01:21:40.280Z,391.74
2023-02-06T01:22:40.394Z,393.80
2023-02-06T01:23:40.424Z,391.51
2023-02-06T01:24:40.534Z,391.51
2023-02-06T01:25:40.596Z,391.51
2023-02-06T01:26:40.699Z,391.96
2023-02-06T01:27:40.778Z,390.37
2023-02-06T01:28:40.869Z,391.05
2023-02-06T01:29:40.948Z,392.65
2023-02-06T01:30:41.092Z,394.50
2023-02-06T01:31:41.183Z,390.37
2023-02-06T01:32:41.185Z,391.05
2023-02-06T01:33:41.243Z,392.19
2023-02-06T01:34:41.340Z,391.51
2023-02-06T01:35:41.411Z,393.34
2023-02-06T01:36:41.493Z,389.24
2023-02-06T01:37:41.541Z,393.34
2023-02-06T01:38:41.603Z,393.80
2023-02-06T01:39:41.694Z,390.60
2023-02-06T01:40:41.763Z,391.28
2023-02-06T01:41:41.830Z,390.37
2023-02-06T01:42:41.915Z,390.37
2023-02-06T01:43:41.987Z,391.28
2023-02-06T01:44:42.073Z,391.96
2023-02-06T01:45:42.151Z,391.28
2023-02-06T01:46:42.269Z,392.65
2023-02-06T01:47:48.383Z,390.60
2023-02-06T01:48:42.417Z,392.19
2023-02-06T01:49:42.492Z,388.56
2023-02-06T01:50:42.574Z,390.60
2023-02-06T01:51:42.668Z,392.42
2023-02-06T01:52:42.765Z,392.42
2023-02-06T01:53:42.882Z,392.19
2023-02-06T01:54:42.939Z,391.51
2023-02-06T01:55:43.034Z,391.05
2023-02-06T01:56:43.136Z,389.01
2023-02-06T01:57:43.190Z,391.28
2023-02-06T01:58:43.268Z,391.74
2023-02-06T01:59:43.361Z,390.82
2023-02-06T02:00:43.466Z,391.51
2023-02-06T02:01:43.511Z,392.42
2023-02-06T02:02:43.609Z,392.42
2023-02-06T02:03:43.692Z,390.82
2023-02-06T02:04:43.800Z,393.34
2023-02-06T02:05:43.854Z,394.03
2023-02-06T02:06:43.915Z,390.60
2023-02-06T02:07:43.999Z,392.19
2023-02-06T02:08:44.044Z,391.05
2023-02-06T02:09:44.129Z,391.05
2023-02-06T02:10:44.197Z,391.51
2023-02-06T02:11:44.252Z,390.82
2023-02-06T02:12:44.345Z,390.37
2023-02-06T02:13:44.452Z,391.28
2023-02-06T02:14:44.515Z,390.82
2023-02-06T02:15:44.628Z,391.51
2023-02-06T02:16:44.708Z,391.51
2023-02-06T02:17:44.793Z,391.96
2023-02-06T02:18:50.844Z,393.11
2023-02-06T02:19:44.971Z,390.37
2023-02-06T02:20:45.062Z,390.37
2023-02-06T02:21:45.174Z,389.01
2023-02-06T02:22:45.239Z,387.89
2023-02-06T02:23:45.309Z,390.60
2023-02-06T02:24:45.394Z,391.05
2023-02-06T02:25:45.481Z,390.60
2023-02-06T02:26:45.584Z,391.05
2023-02-06T02:27:45.768Z,391.05
2023-02-06T02:28:45.712Z,390.82
2023-02-06T02:29:45.773Z,390.82
2023-02-06T02:30:45.891Z,393.57
2023-02-06T02:31:45.993Z,392.19
2023-02-06T02:32:46.032Z,390.37
2023-02-06T02:33:46.093Z,388.56
2023-02-06T02:34:46.167Z,390.60
2023-02-06T02:35:46.256Z,391.51
2023-02-06T02:36:46.327Z,390.82
2023-02-06T02:37:46.432Z,392.42
2023-02-06T02:38:46.525Z,392.88
2023-02-06T02:39:46.589Z,390.37
2023-02-06T02:40:46.662Z,389.92
2023-02-06T02:41:46.759Z,391.05
2023-02-06T02:42:46.820Z,391.05
2023-02-06T02:43:46.923Z,391.05
2023-02-06T02:44:47.028Z,389.46
2023-02-06T02:45:47.129Z,391.28
2023-02-06T02:46:47.158Z,388.56
2023-02-06T02:47:47.264Z,390.37
2023-02-06T02:48:47.346Z,391.96
2023-02-06T02:49:53.443Z,391.28
2023-02-06T02:50:47.508Z,390.37
2023-02-06T02:51:47.604Z,392.65
2023-02-06T02:52:47.689Z,390.60
2023-02-06T02:53:47.749Z,389.92
2023-02-06T02:54:47.841Z,391.74
2023-02-06T02:55:47.958Z,387.67
2023-02-06T02:56:48.022Z,392.19
2023-02-06T02:57:48.123Z,390.37
2023-02-06T02:58:48.206Z,390.37
2023-02-06T02:59:48.287Z,391.74
2023-02-06T03:00:48.403Z,392.42
2023-02-06T03:01:48.644Z,390.14
2023-02-06T03:02:48.528Z,391.28
2023-02-06T03:03:48.616Z,390.60
2023-02-06T03:04:48.712Z,392.19
2023-02-06T03:05:48.795Z,390.60
2023-02-06T03:06:48.906Z,390.37
2023-02-06T03:07:49.008Z,391.05
2023-02-06T03:08:49.074Z,391.74
2023-02-06T03:09:49.914Z,389.92
2023-02-06T03:10:49.259Z,392.65
2023-02-06T03:11:49.345Z,390.37
2023-02-06T03:12:49.439Z,391.05
2023-02-06T03:13:49.528Z,391.51
2023-02-06T03:14:49.600Z,392.19
2023-02-06T03:15:49.683Z,389.01
2023-02-06T03:16:49.748Z,392.42
2023-02-06T03:17:49.822Z,391.28
2023-02-06T03:18:49.909Z,392.42
2023-02-06T03:19:49.995Z,391.05
2023-02-06T03:20:56.071Z,392.42
2023-02-06T03:21:50.176Z,393.34
2023-02-06T03:22:50.246Z,392.65
2023-02-06T03:23:50.360Z,391.28
2023-02-06T03:24:50.438Z,392.65
2023-02-06T03:25:50.539Z,390.82
2023-02-06T03:26:50.629Z,390.82
2023-02-06T03:27:50.738Z,391.96
2023-02-06T03:28:50.857Z,393.11
2023-02-06T03:29:50.913Z,389.92
2023-02-06T03:30:51.044Z,390.14
2023-02-06T03:31:51.128Z,389.92
2023-02-06T03:32:51.145Z,390.60
2023-02-06T03:33:51.214Z,392.42
2023-02-06T03:34:51.294Z,394.03
2023-02-06T03:35:51.362Z,390.60
2023-02-06T03:36:51.431Z,391.96
2023-02-06T03:37:51.534Z,388.34
2023-02-06T03:38:51.616Z,390.82
2023-02-06T03:39:51.685Z,392.42
2023-02-06T03:40:51.758Z,390.82
2023-02-06T03:41:51.854Z,391.28
2023-02-06T03:42:51.927Z,391.05
2023-02-06T03:43:52.023Z,390.60
2023-02-06T03:44:52.068Z,391.05
2023-02-06T03:45:52.214Z,390.82
2023-02-06T03:46:52.266Z,389.92
2023-02-06T03:47:52.364Z,393.11
2023-02-06T03:48:52.423Z,390.82
2023-02-06T03:49:52.492Z,392.19
2023-02-06T03:50:52.563Z,391.74
2023-02-06T03:51:58.624Z,392.19
2023-02-06T03:52:52.724Z,390.82
2023-02-06T03:53:52.800Z,391.96
2023-02-06T03:54:52.877Z,391.05
2023-02-06T03:55:52.964Z,392.19
2023-02-06T03:56:53.036Z,392.88
2023-02-06T03:57:53.120Z,393.80
2023-02-06T03:58:53.214Z,389.69
2023-02-06T03:59:53.334Z,391.96
2023-02-06T04:00:53.381Z,391.28
2023-02-06T04:01:53.453Z,390.60
2023-02-06T04:02:53.526Z,390.37
2023-02-06T04:03:53.616Z,389.92
2023-02-06T04:04:53.699Z,390.82
2023-02-06T04:05:53.780Z,393.34
2023-02-06T04:06:53.888Z,390.60
2023-02-06T04:07:53.963Z,389.24
2023-02-06T04:08:54.028Z,391.05
2023-02-06T04:09:54.119Z,386.77
2023-02-06T04:10:54.204Z,391.51
2023-02-06T04:11:54.294Z,390.37
2023-02-06T04:12:54.418Z,389.01
2023-02-06T04:13:54.464Z,388.56
2023-02-06T04:14:54.554Z,390.14
2023-02-06T04:15:54.628Z,390.60
2023-02-06T04:16:54.713Z,391.74
2023-02-06T04:18:00.428Z,392.65
2023-02-06T04:18:54.866Z,393.57
2023-02-06T04:19:54.957Z,390.37
2023-02-06T04:20:55.012Z,390.14
2023-02-06T04:21:55.083Z,391.28
2023-02-06T04:23:01.544Z,390.37
2023-02-06T04:23:55.254Z,388.79
2023-02-06T04:24:55.341Z,390.60
2023-02-06T04:25:55.420Z,392.42
2023-02-06T04:26:55.473Z,389.01
2023-02-06T04:27:55.607Z,391.96
2023-02-06T04:28:55.690Z,389.01
2023-02-06T04:29:55.741Z,391.28
2023-02-06T04:30:55.904Z,390.82
2023-02-06T04:31:55.916Z,389.69
2023-02-06T04:32:55.973Z,390.82
2023-02-06T04:33:56.054Z,389.69
2023-02-06T04:34:56.141Z,389.69
2023-02-06T04:35:56.199Z,390.60
2023-02-06T04:36:56.263Z,389.92
2023-02-06T04:37:56.368Z,389.46
2023-02-06T04:38:56.431Z,391.28
2023-02-06T04:39:56.509Z,394.03
2023-02-06T04:40:56.595Z,391.51
2023-02-06T04:41:56.682Z,391.74
2023-02-06T04:42:56.761Z,390.60
2023-02-06T04:43:56.836Z,390.37
2023-02-06T04:44:56.919Z,390.37
2023-02-06T04:45:57.038Z,389.01
2023-02-06T04:46:57.083Z,389.69
2023-02-06T04:47:59.399Z,390.82
2023-02-06T04:48:57.259Z,391.74
2023-02-06T04:49:57.359Z,388.34
2023-02-06T04:50:57.440Z,390.82
2023-02-06T04:51:57.549Z,391.96
2023-02-06T04:52:57.615Z,388.79
2023-02-06T04:54:03.668Z,390.60
2023-02-06T04:54:57.792Z,390.14
2023-02-06T04:55:57.858Z,390.37
2023-02-06T04:56:57.950Z,390.82
2023-02-06T04:57:58.042Z,391.28
2023-02-06T04:58:58.083Z,390.37
2023-02-06T04:59:58.160Z,388.34
2023-02-06T05:00:58.262Z,389.01
2023-02-06T05:01:58.306Z,388.79
2023-02-06T05:02:58.405Z,391.51
2023-02-06T05:03:58.490Z,390.14
2023-02-06T05:04:58.560Z,390.82
2023-02-06T05:05:58.634Z,388.34
2023-02-06T05:06:58.735Z,388.79
2023-02-06T05:07:58.814Z,390.14
2023-02-06T05:08:58.910Z,388.34
2023-02-06T05:09:58.997Z,390.37
2023-02-06T05:10:59.050Z,391.51
2023-02-06T05:11:59.122Z,389.69
2023-02-06T05:12:59.198Z,390.82
2023-02-06T05:13:59.289Z,390.14
2023-02-06T05:14:59.340Z,390.82
2023-02-06T05:15:59.458Z,389.92
2023-02-06T05:16:59.494Z,389.46
2023-02-06T05:17:59.584Z,391.51
2023-02-06T05:18:59.642Z,388.79
2023-02-06T05:19:59.749Z,389.24
2023-02-06T05:20:59.852Z,389.24
2023-02-06T05:21:59.924Z,387.67
2023-02-06T05:23:00.026Z,390.60
2023-02-06T05:24:00.092Z,387.89
2023-02-06T05:25:06.155Z,390.14
2023-02-06T05:26:00.253Z,391.96
2023-02-06T05:27:00.350Z,389.69
2023-02-06T05:28:00.417Z,387.67
2023-02-06T05:29:00.500Z,390.82
2023-02-06T05:30:00.590Z,389.01
2023-02-06T05:31:00.687Z,389.01
2023-02-06T05:32:00.770Z,389.24
2023-02-06T05:33:00.858Z,389.92
2023-02-06T05:34:00.917Z,391.05
2023-02-06T05:35:00.995Z,387.67
2023-02-06T05:36:01.076Z,388.34
2023-02-06T05:37:01.165Z,388.11
2023-02-06T05:38:01.274Z,387.89
2023-02-06T05:39:01.340Z,390.14
2023-02-06T05:40:01.452Z,389.92
2023-02-06T05:41:01.573Z,389.69
2023-02-06T05:42:01.642Z,389.69
2023-02-06T05:43:01.714Z,389.92
2023-02-06T05:44:01.788Z,387.22
2023-02-06T05:45:01.886Z,390.60
2023-02-06T05:46:02.045Z,389.92
2023-02-06T05:47:02.055Z,387.89
2023-02-06T05:48:02.152Z,388.79
2023-02-06T05:49:02.260Z,391.96
2023-02-06T05:50:02.310Z,390.82
2023-02-06T05:51:02.403Z,389.01
2023-02-06T05:52:02.494Z,390.37
2023-02-06T05:53:02.578Z,389.69
2023-02-06T05:54:02.659Z,389.24
2023-02-06T05:55:02.748Z,389.92
2023-02-06T05:56:08.849Z,387.89
2023-02-06T05:57:02.932Z,389.01
2023-02-06T05:58:04.953Z,388.11
2023-02-06T05:59:03.081Z,391.28
2023-02-06T06:00:03.213Z,388.56
2023-02-06T06:01:03.267Z,390.37
2023-02-06T06:02:03.344Z,389.92
2023-02-06T06:03:03.416Z,388.56
2023-02-06T06:04:03.611Z,392.19
2023-02-06T06:05:03.666Z,387.89
2023-02-06T06:06:03.698Z,390.37
2023-02-06T06:07:03.755Z,389.92
2023-02-06T06:08:03.837Z,387.67
2023-02-06T06:09:03.916Z,389.46
2023-02-06T06:10:03.992Z,390.82
2023-02-06T06:11:04.115Z,389.69
2023-02-06T06:12:04.145Z,389.92
2023-02-06T06:13:04.221Z,389.46
2023-02-06T06:14:04.313Z,388.56
2023-02-06T06:15:04.382Z,390.37
2023-02-06T06:16:04.544Z,391.28
2023-02-06T06:17:04.561Z,389.24
2023-02-06T06:18:04.659Z,389.69
2023-02-06T06:19:04.776Z,388.79
2023-02-06T06:20:04.856Z,388.79
2023-02-06T06:21:04.959Z,389.46
2023-02-06T06:22:05.065Z,389.24
2023-02-06T06:23:05.140Z,391.28
2023-02-06T06:24:05.224Z,389.92
2023-02-06T06:25:05.319Z,389.92
2023-02-06T06:26:05.399Z,391.28
2023-02-06T06:27:11.570Z,387.44
2023-02-06T06:28:05.610Z,386.77
2023-02-06T06:29:05.651Z,390.37
2023-02-06T06:30:05.724Z,391.28
2023-02-06T06:31:06.018Z,390.82
2023-02-06T06:32:05.914Z,391.28
2023-02-06T06:33:06.010Z,389.24
2023-02-06T06:34:06.053Z,390.82
2023-02-06T06:35:06.150Z,389.24
2023-02-06T06:36:06.214Z,389.01
2023-02-06T06:37:06.315Z,392.19
2023-02-06T06:38:06.406Z,389.24
2023-02-06T06:39:06.494Z,390.60
2023-02-06T06:40:06.533Z,391.05
2023-02-06T06:41:06.639Z,390.60
2023-02-06T06:42:06.695Z,391.51
2023-02-06T06:43:06.794Z,391.74
2023-02-06T06:44:06.885Z,390.37
2023-02-06T06:45:06.978Z,392.19
2023-02-06T06:46:07.124Z,391.05
2023-02-06T06:47:07.138Z,391.28
2023-02-06T06:48:07.487Z,391.05
2023-02-06T06:49:07.280Z,390.60
2023-02-06T06:50:07.380Z,391.51
2023-02-06T06:51:07.479Z,394.50
2023-02-06T06:52:19.618Z,391.51
2023-02-06T06:53:07.619Z,392.65
2023-02-06T06:54:07.716Z,390.14
2023-02-06T06:55:07.793Z,390.14
2023-02-06T06:56:07.879Z,391.74
2023-02-06T06:57:07.989Z,389.69
2023-02-06T06:59:28.753Z,450.89
2023-02-06T07:00:29.864Z,441.99
2023-02-06T07:01:29.939Z,434.00
2023-02-06T07:02:30.027Z,429.56
2023-02-06T07:03:30.108Z,425.75
2023-02-06T07:04:30.195Z,427.10
2023-02-06T07:05:30.282Z,429.28
2023-02-06T07:06:30.372Z,426.56
2023-02-06T07:07:30.487Z,425.75
2023-02-06T07:08:30.574Z,427.10
2023-02-06T07:09:30.614Z,423.87
2023-02-06T07:10:30.844Z,423.33
2023-02-06T07:11:30.777Z,423.60
2023-02-06T07:12:30.857Z,420.15
2023-02-06T07:13:30.925Z,421.47
2023-02-06T07:14:31.039Z,419.11
2023-02-06T07:15:31.108Z,419.89
2023-02-06T07:16:31.212Z,417.80
2023-02-06T07:17:31.299Z,415.48
2023-02-06T07:18:31.389Z,415.48
2023-02-06T07:19:31.516Z,414.96
2023-02-06T07:20:31.603Z,412.67
2023-02-06T07:21:31.639Z,411.41
2023-02-06T07:22:31.714Z,411.41
2023-02-06T07:23:31.790Z,415.99
2023-02-06T07:24:31.891Z,422.53
2023-02-06T07:25:31.966Z,428.46
2023-02-06T07:26:32.054Z,431.21
2023-02-06T07:27:32.151Z,434.84
2023-02-06T07:28:32.213Z,438.24
2023-02-06T07:29:38.283Z,442.28
2023-02-06T07:30:32.459Z,438.53
2023-02-06T07:31:32.601Z,441.41
2023-02-06T07:32:32.545Z,444.62
2023-02-06T07:33:33.345Z,447.29
2023-02-06T07:34:32.725Z,451.19
2023-02-06T07:35:32.795Z,450.29
2023-02-06T07:36:32.887Z,452.11
2023-02-06T07:37:33.002Z,453.94
2023-02-06T07:38:33.084Z,455.17
2023-02-06T07:39:33.177Z,453.02
2023-02-06T07:40:44.648Z,455.79
2023-02-06T07:41:33.344Z,457.96
2023-02-06T07:42:33.429Z,457.02
2023-02-06T07:43:33.520Z,458.58
2023-02-06T07:44:33.607Z,459.21
2023-02-06T07:45:33.747Z,461.42
2023-02-06T07:46:33.776Z,463.33
2023-02-06T07:47:33.857Z,465.25
2023-02-06T07:48:33.942Z,465.90
2023-02-06T07:49:34.012Z,464.61
2023-02-06T07:50:34.074Z,467.20
2023-02-06T07:51:34.164Z,467.85
2023-02-06T07:52:34.972Z,469.81
2023-02-06T07:53:34.298Z,467.52
2023-02-06T07:54:34.398Z,472.79
2023-02-06T07:55:34.658Z,468.83
2023-02-06T07:56:34.552Z,468.83
2023-02-06T07:57:34.641Z,472.79
2023-02-06T07:58:34.697Z,470.14
2023-02-06T07:59:34.775Z,472.45
2023-02-06T08:00:40.948Z,471.79
2023-02-06T08:01:34.953Z,468.83
2023-02-06T08:02:35.016Z,471.13
2023-02-06T08:03:35.112Z,469.48
2023-02-06T08:04:35.339Z,469.81
2023-02-06T08:05:35.898Z,462.69
2023-02-06T08:06:35.378Z,465.58
2023-02-06T08:07:35.438Z,465.90
2023-02-06T08:08:35.519Z,459.53
2023-02-06T08:09:35.614Z,463.33
2023-02-06T08:10:35.676Z,463.97
2023-02-06T08:11:35.759Z,460.47
2023-02-06T08:12:35.833Z,462.69
2023-02-06T08:13:35.905Z,457.65
2023-02-06T08:14:35.973Z,460.47
2023-02-06T08:15:36.396Z,460.47
2023-02-06T08:16:36.285Z,459.21
2023-02-06T08:17:36.246Z,454.86
2023-02-06T08:18:36.289Z,458.27
2023-02-06T08:19:36.391Z,456.40
2023-02-06T08:20:36.474Z,457.65
2023-02-06T08:21:36.563Z,454.86
2023-02-06T08:22:36.648Z,456.40
2023-02-06T08:23:36.814Z,455.48
2023-02-06T08:24:36.817Z,452.41
2023-02-06T08:25:37.375Z,454.86
2023-02-06T08:26:36.945Z,453.94
2023-02-06T08:27:37.036Z,453.63
2023-02-06T08:28:37.142Z,451.50
2023-02-06T08:29:37.188Z,449.38
2023-02-06T08:30:37.378Z,450.29
2023-02-06T08:31:43.393Z,449.08
2023-02-06T08:32:37.457Z,448.48
2023-02-06T08:33:37.564Z,449.98
2023-02-06T08:34:37.611Z,449.38
2023-02-06T08:35:37.932Z,447.59
2023-02-06T08:36:37.838Z,449.38
2023-02-06T08:37:37.885Z,447.29
2023-02-06T08:38:37.972Z,448.18
2023-02-06T08:39:38.072Z,443.16
2023-02-06T08:40:38.111Z,446.40
2023-02-06T08:41:38.229Z,446.69
2023-02-06T08:42:38.315Z,445.21
2023-02-06T08:43:38.370Z,446.40
2023-02-06T08:44:38.457Z,446.69
2023-02-06T08:45:38.577Z,443.45
2023-02-06T08:46:38.633Z,443.45
2023-02-06T08:47:38.699Z,443.45
2023-02-06T08:48:38.770Z,443.16
2023-02-06T08:49:38.887Z,443.74
2023-02-06T08:50:38.961Z,443.16
2023-02-06T08:51:39.093Z,443.45
2023-02-06T08:52:39.097Z,439.10
2023-02-06T08:53:39.181Z,441.41
2023-02-06T08:54:39.280Z,441.12
2023-02-06T08:55:39.719Z,441.70
2023-02-06T08:56:39.451Z,441.12
2023-02-06T08:57:39.553Z,440.54
2023-02-06T08:58:39.601Z,439.10
2023-02-06T08:59:39.684Z,437.10
2023-02-06T09:00:39.760Z,437.39
2023-02-06T09:01:39.870Z,437.10
2023-02-06T09:02:45.932Z,439.68
2023-02-06T09:03:40.039Z,439.10
2023-02-06T09:04:40.120Z,437.96
2023-02-06T09:05:40.188Z,435.40
2023-02-06T09:06:40.279Z,437.67
2023-02-06T09:07:40.364Z,436.82
2023-02-06T09:08:40.481Z,436.54
2023-02-06T09:09:40.529Z,437.67
2023-02-06T09:10:40.606Z,437.39
2023-02-06T09:11:40.660Z,437.67
2023-02-06T09:12:40.749Z,434.84
2023-02-06T09:13:40.829Z,435.12
2023-02-06T09:14:40.943Z,435.69
2023-02-06T09:15:41.219Z,434.56
2023-02-06T09:16:41.085Z,437.39
2023-02-06T09:17:41.176Z,434.00
2023-02-06T09:18:41.263Z,434.84
2023-02-06T09:19:41.350Z,433.16
2023-02-06T09:20:41.431Z,432.32
2023-02-06T09:21:41.495Z,431.21
2023-02-06T09:22:41.584Z,431.49
2023-02-06T09:23:41.665Z,432.04
2023-02-06T09:24:41.756Z,430.93
2023-02-06T09:25:41.858Z,432.04
2023-02-06T09:26:58.132Z,432.04
2023-02-06T09:27:41.981Z,430.38
2023-02-06T09:28:42.072Z,435.12
2023-02-06T09:29:42.181Z,432.88
2023-02-06T09:30:42.267Z,432.88
2023-02-06T09:31:42.418Z,431.77
2023-02-06T09:32:42.415Z,430.66
2023-02-06T09:33:48.467Z,430.38
2023-02-06T09:34:42.589Z,428.46
2023-02-06T09:35:42.678Z,426.83
2023-02-06T09:36:42.788Z,428.73
2023-02-06T09:37:42.864Z,427.92
2023-02-06T09:38:42.956Z,427.92
2023-02-06T09:39:43.015Z,429.28
2023-02-06T09:40:43.099Z,427.64
2023-02-06T09:41:43.199Z,427.37
2023-02-06T09:42:43.288Z,425.75
2023-02-06T09:43:43.349Z,427.92
2023-02-06T09:44:43.435Z,427.92
2023-02-06T09:45:43.530Z,425.75
2023-02-06T09:46:43.665Z,426.02
2023-02-06T09:47:45.204Z,426.29
2023-02-06T09:48:43.774Z,424.67
2023-02-06T09:49:43.870Z,424.13
2023-02-06T09:50:43.940Z,421.74
2023-02-06T09:51:44.018Z,422.27
2023-02-06T09:52:44.099Z,421.21
2023-02-06T09:53:44.212Z,423.33
2023-02-06T09:54:44.272Z,423.60
2023-02-06T09:55:44.357Z,421.21
2023-02-06T09:56:44.438Z,420.15
2023-02-06T09:57:44.537Z,422.53
2023-02-06T09:58:44.642Z,423.07
2023-02-06T09:59:44.724Z,421.21
2023-02-06T10:00:44.833Z,418.85
2023-02-06T10:01:44.968Z,419.11
2023-02-06T10:02:44.980Z,420.68
2023-02-06T10:03:45.056Z,419.63
2023-02-06T10:04:51.458Z,418.06
2023-02-06T10:05:45.832Z,418.58
2023-02-06T10:06:45.303Z,418.85
2023-02-06T10:07:45.398Z,418.58
2023-02-06T10:08:45.507Z,418.85
2023-02-06T10:09:45.566Z,417.02
2023-02-06T10:10:45.669Z,417.54
2023-02-06T10:11:45.729Z,415.99
2023-02-06T10:12:45.818Z,416.77
2023-02-06T10:13:45.912Z,417.02
2023-02-06T10:14:45.988Z,413.43
2023-02-06T10:15:46.100Z,417.80
2023-02-06T10:16:46.183Z,412.67
2023-02-06T10:17:46.235Z,414.96
2023-02-06T10:18:46.318Z,414.96
2023-02-06T10:19:46.408Z,415.22
2023-02-06T10:20:46.467Z,413.43
2023-02-06T10:21:46.578Z,413.18
2023-02-06T10:22:46.661Z,412.67
2023-02-06T10:23:47.700Z,414.71
2023-02-06T10:24:46.835Z,412.67
2023-02-06T10:25:46.920Z,412.92
2023-02-06T10:26:46.976Z,416.51
2023-02-06T10:27:47.111Z,417.02
2023-02-06T10:28:47.140Z,416.51
2023-02-06T10:29:47.218Z,419.63
2023-02-06T10:30:47.318Z,419.37
2023-02-06T10:31:47.498Z,418.06
2023-02-06T10:32:47.483Z,418.32
2023-02-06T10:33:47.591Z,416.77
2023-02-06T10:34:47.676Z,417.54
2023-02-06T10:35:53.672Z,416.25
2023-02-06T10:36:47.826Z,416.51
2023-02-06T10:37:47.868Z,414.96
2023-02-06T10:38:47.943Z,416.77
2023-02-06T10:39:48.051Z,416.77
2023-02-06T10:40:48.111Z,414.71
2023-02-06T10:41:48.244Z,414.71
2023-02-06T10:42:48.322Z,415.73
2023-02-06T10:43:48.362Z,414.45
2023-02-06T10:44:51.402Z,411.91
2023-02-06T10:45:48.598Z,414.20
2023-02-06T10:46:48.706Z,418.85
2023-02-06T10:47:48.722Z,420.68
2023-02-06T10:48:48.834Z,423.87
2023-02-06T10:49:48.936Z,429.01
2023-02-06T10:50:48.995Z,432.32
2023-02-06T10:51:49.092Z,435.69
2023-02-06T10:52:49.132Z,437.39
2023-02-06T10:53:49.212Z,438.53
2023-02-06T10:54:49.305Z,440.83
2023-02-06T10:55:49.597Z,441.70
2023-02-06T10:56:49.593Z,443.45
2023-02-06T10:57:49.546Z,444.62
2023-02-06T10:58:49.656Z,446.99
2023-02-06T10:59:49.740Z,444.33
2023-02-06T11:00:49.901Z,444.92
2023-02-06T11:01:49.961Z,446.99
2023-02-06T11:03:01.343Z,448.48
2023-02-06T11:03:50.082Z,448.78
2023-02-06T11:04:50.156Z,450.89
2023-02-06T11:05:50.255Z,451.19
2023-02-06T11:06:56.487Z,453.94
2023-02-06T11:07:50.418Z,453.33
2023-02-06T11:08:50.519Z,453.63
2023-02-06T11:09:50.582Z,455.17
2023-02-06T11:10:50.685Z,456.40
2023-02-06T11:11:50.780Z,456.10
2023-02-06T11:12:50.858Z,458.58
2023-02-06T11:13:50.924Z,459.84
2023-02-06T11:14:51.044Z,457.96
2023-02-06T11:15:51.132Z,461.10
2023-02-06T11:16:51.179Z,462.69
2023-02-06T11:17:51.272Z,461.10
2023-02-06T11:18:51.388Z,461.42
2023-02-06T11:19:51.434Z,462.69
2023-02-06T11:20:51.497Z,464.93
2023-02-06T11:21:51.589Z,462.69
2023-02-06T11:22:53.509Z,463.65
2023-02-06T11:23:51.768Z,464.93
2023-02-06T11:24:51.812Z,466.22
2023-02-06T11:25:51.908Z,467.20
2023-02-06T11:26:52.000Z,466.87
2023-02-06T11:27:52.175Z,468.50
2023-02-06T11:28:52.180Z,468.83
2023-02-06T11:29:52.434Z,468.83
2023-02-06T11:30:52.374Z,467.20
2023-02-06T11:31:52.451Z,470.14
2023-02-06T11:33:03.757Z,471.79
2023-02-06T11:33:52.637Z,471.13
2023-02-06T11:34:52.739Z,473.79
2023-02-06T11:35:52.787Z,473.79
2023-02-06T11:36:52.890Z,476.14
2023-02-06T11:37:58.928Z,471.79
2023-02-06T11:38:53.018Z,473.79
2023-02-06T11:39:53.109Z,475.12
2023-02-06T11:40:53.209Z,476.14
2023-02-06T11:41:53.287Z,476.14
2023-02-06T11:42:53.380Z,479.53
2023-02-06T11:43:53.442Z,477.83
2023-02-06T11:44:53.533Z,476.47
2023-02-06T11:45:53.712Z,477.15
2023-02-06T11:46:53.707Z,476.81
2023-02-06T11:47:53.789Z,474.12
2023-02-06T11:48:53.876Z,476.81
2023-02-06T11:49:53.948Z,474.12
2023-02-06T11:50:54.025Z,475.46
2023-02-06T11:51:54.150Z,476.47
2023-02-06T11:52:54.209Z,477.15
2023-02-06T11:53:54.293Z,471.46
2023-02-06T11:54:54.377Z,472.45
2023-02-06T11:55:54.453Z,472.79
2023-02-06T11:56:54.542Z,469.15
2023-02-06T11:57:54.600Z,473.12
2023-02-06T11:58:54.677Z,474.79
2023-02-06T11:59:54.789Z,471.46
2023-02-06T12:00:54.853Z,469.15
2023-02-06T12:01:54.964Z,463.97
2023-02-06T12:02:55.039Z,468.50
2023-02-06T12:03:55.128Z,466.22
2023-02-06T12:04:55.204Z,464.93
2023-02-06T12:05:56.709Z,465.58
2023-02-06T12:06:55.398Z,464.29
2023-02-06T12:07:55.548Z,465.25
2023-02-06T12:09:01.528Z,464.61
2023-02-06T12:09:55.672Z,464.61
2023-02-06T12:10:55.744Z,463.33
2023-02-06T12:11:55.818Z,461.10
2023-02-06T12:12:55.926Z,459.53
2023-02-06T12:13:56.013Z,463.33
2023-02-06T12:14:56.066Z,458.90
2023-02-06T12:15:56.143Z,458.58
2023-02-06T12:16:56.307Z,459.84
2023-02-06T12:17:56.275Z,457.02
2023-02-06T12:18:56.371Z,460.79
2023-02-06T12:19:56.464Z,459.21
2023-02-06T12:20:56.501Z,457.34
2023-02-06T12:21:56.709Z,454.86
2023-02-06T12:22:56.688Z,457.02
2023-02-06T12:23:56.796Z,456.10
2023-02-06T12:24:56.892Z,456.10
2023-02-06T12:25:56.967Z,454.24
2023-02-06T12:26:57.056Z,453.02
2023-02-06T12:27:57.249Z,452.41
2023-02-06T12:28:57.216Z,452.41
2023-02-06T12:29:57.326Z,453.02
2023-02-06T12:30:57.524Z,451.80